createdAt,value
2019-02-25T00:04:21.756Z,103293.09
2019-02-25T00:09:46.195Z,103295.54
2019-02-25T00:15:10.280Z,103306.58
2019-02-25T00:20:34.811Z,103295.22
2019-02-25T00:25:58.691Z,103298.94
2019-02-25T00:31:23.337Z,103300.23
2019-02-25T00:36:48.087Z,103286.00
2019-02-25T00:42:12.572Z,103282.52
2019-02-25T00:47:36.609Z,103268.56
2019-02-25T00:53:00.601Z,103269.39
2019-02-25T00:58:24.414Z,103274.65
2019-02-25T01:03:47.994Z,103273.53
2019-02-25T01:09:11.821Z,103273.13
2019-02-25T01:14:36.504Z,103278.58
2019-02-25T01:20:00.927Z,103268.53
2019-02-25T01:25:26.681Z,103264.77
2019-02-25T01:30:51.078Z,103266.69
2019-02-25T01:36:14.754Z,103279.12
2019-02-25T01:41:38.589Z,103278.49
2019-02-25T01:47:02.831Z,103264.54
2019-02-25T01:52:26.524Z,103266.08
2019-02-25T01:57:52.400Z,103258.23
2019-02-25T02:03:17.109Z,103268.77
2019-02-25T02:08:41.847Z,103265.58
2019-02-25T02:14:06.810Z,103270.54
2019-02-25T02:19:32.064Z,103256.08
2019-02-25T02:24:56.694Z,103251.78
2019-02-25T02:30:21.304Z,103252.59
2019-02-25T02:35:45.915Z,103244.55
2019-02-25T02:41:10.541Z,103223.94
2019-02-25T02:47:23.233Z,103237.11
2019-02-25T02:52:46.973Z,103226.56
2019-02-25T02:58:10.836Z,103215.98
2019-02-25T03:03:38.300Z,103222.34
2019-02-25T03:09:04.757Z,103212.47
2019-02-25T03:14:30.899Z,103218.88
2019-02-25T03:19:54.888Z,103220.04
2019-02-25T03:25:19.817Z,103227.68
2019-02-25T03:30:43.218Z,103234.00
2019-02-25T03:36:07.768Z,103241.53
2019-02-25T03:41:32.806Z,103241.39
2019-02-25T03:46:57.641Z,103233.91
2019-02-25T03:52:21.897Z,103235.10
2019-02-25T03:57:46.458Z,103226.80
2019-02-25T04:03:10.981Z,103228.29
2019-02-25T04:08:35.598Z,103228.19
2019-02-25T04:14:00.281Z,103232.64
2019-02-25T04:19:24.773Z,103235.06
2019-02-25T04:24:49.686Z,103229.44
2019-02-25T04:30:15.213Z,103227.34
2019-02-25T04:35:39.316Z,103226.33
2019-02-25T04:41:03.720Z,103210.94
2019-02-25T04:46:28.088Z,103216.71
2019-02-25T04:51:52.993Z,103230.16
2019-02-25T04:57:16.766Z,103239.22
2019-02-25T05:02:40.688Z,103239.02
2019-02-25T05:08:06.654Z,103258.33
2019-02-25T05:13:31.278Z,103253.72
2019-02-25T05:18:55.491Z,103246.20
2019-02-25T05:24:19.163Z,103248.09
2019-02-25T05:29:42.856Z,103267.09
2019-02-25T05:35:08.691Z,103270.22
2019-02-25T05:40:34.900Z,103257.30
2019-02-25T05:45:59.675Z,103262.32
2019-02-25T05:51:23.813Z,103255.23
2019-02-25T05:56:48.494Z,103268.62
2019-02-25T06:02:13.282Z,103263.67
2019-02-25T06:07:37.806Z,103268.63
2019-02-25T06:13:02.237Z,103262.74
2019-02-25T06:18:26.974Z,103269.61
2019-02-25T06:23:51.792Z,103274.20
2019-02-25T06:29:16.523Z,103275.38
2019-02-25T06:34:40.128Z,103281.44
2019-02-25T06:40:05.402Z,103271.63
2019-02-25T06:45:31.154Z,103275.48
2019-02-25T06:50:56.775Z,103282.67
2019-02-25T06:56:21.421Z,103289.47
2019-02-25T07:01:45.079Z,103282.23
2019-02-25T07:07:16.514Z,103290.19
2019-02-25T07:13:02.615Z,103280.32
2019-02-25T07:18:38.135Z,103292.64
2019-02-25T07:24:15.205Z,103296.50
2019-02-25T07:30:02.296Z,103300.84
2019-02-25T07:35:46.392Z,103294.27
2019-02-25T07:41:33.781Z,103296.78
2019-02-25T07:47:03.287Z,103297.10
2019-02-25T07:52:36.039Z,103297.64
2019-02-25T07:58:08.370Z,103297.57
2019-02-25T08:03:45.124Z,103311.94
2019-02-25T08:09:25.609Z,103302.58
2019-02-25T08:15:14.874Z,103298.05
2019-02-25T08:20:58.301Z,103301.55
2019-02-25T08:26:33.072Z,103296.98
2019-02-25T08:32:09.729Z,103284.84
2019-02-25T08:38:02.788Z,103272.81
2019-02-25T08:43:45.688Z,103271.81
2019-02-25T08:49:13.853Z,103271.83
2019-02-25T08:54:37.686Z,103259.33
2019-02-25T09:00:02.084Z,103270.86
2019-02-25T09:05:27.497Z,103275.41
2019-02-25T09:10:52.430Z,103277.79
2019-02-25T09:16:17.215Z,103277.37
2019-02-25T09:21:41.029Z,103290.42
2019-02-25T09:27:05.427Z,103261.77
2019-02-25T09:32:31.001Z,103254.55
2019-02-25T09:37:55.746Z,103258.38
2019-02-25T09:43:19.641Z,103257.61
2019-02-25T09:48:43.714Z,103261.53
2019-02-25T09:54:07.453Z,103253.80
2019-02-25T09:59:32.009Z,103253.16
2019-02-25T10:04:57.444Z,103237.76
2019-02-25T10:10:22.896Z,103240.81
2019-02-25T10:15:46.737Z,103224.03
2019-02-25T10:21:11.205Z,103210.38
2019-02-25T10:26:35.625Z,103215.84
2019-02-25T10:32:00.109Z,103203.42
2019-02-25T10:37:24.915Z,103208.23
2019-02-25T10:42:49.151Z,103208.66
2019-02-25T10:48:13.058Z,103197.75
2019-02-25T10:53:37.554Z,103196.98
2019-02-25T10:59:03.604Z,103175.95
2019-02-25T11:04:27.241Z,103153.10
2019-02-25T11:09:57.260Z,103165.55
2019-02-25T11:15:21.048Z,103163.39
2019-02-25T11:20:45.680Z,103167.32
2019-02-25T11:26:09.433Z,103159.34
2019-02-25T11:31:34.077Z,103147.16
2019-02-25T11:36:59.521Z,103137.37
2019-02-25T11:42:23.595Z,103133.31
2019-02-25T11:47:48.802Z,103130.12
2019-02-25T11:53:13.793Z,103139.23
2019-02-25T11:58:39.160Z,103134.59
2019-02-25T12:04:02.936Z,103111.46
2019-02-25T12:09:26.823Z,103115.02
2019-02-25T12:14:51.385Z,103108.58
2019-02-25T12:20:16.219Z,103071.93
2019-02-25T12:25:40.947Z,103056.91
2019-02-25T12:31:04.559Z,103056.07
2019-02-25T12:36:29.168Z,103060.33
2019-02-25T12:41:52.896Z,103038.27
2019-02-25T12:47:16.798Z,103022.30
2019-02-25T12:52:41.235Z,103009.17
2019-02-25T12:58:05.744Z,103000.05
2019-02-25T13:03:29.390Z,102998.68
2019-02-25T13:08:53.912Z,102987.20
2019-02-25T13:14:18.691Z,102984.18
2019-02-25T13:19:43.858Z,102985.97
2019-02-25T13:25:10.585Z,102985.97
2019-02-25T13:30:35.572Z,102989.07
2019-02-25T13:36:00.084Z,103002.69
2019-02-25T13:41:24.003Z,103010.88
2019-02-25T13:46:47.920Z,102996.94
2019-02-25T13:52:12.456Z,102996.08
2019-02-25T13:57:36.922Z,103003.05
2019-02-25T14:03:03.365Z,103006.45
2019-02-25T14:08:28.272Z,103009.42
2019-02-25T14:13:52.404Z,103006.61
2019-02-25T14:19:17.572Z,102995.44
2019-02-25T14:24:42.212Z,102978.50
2019-02-25T14:30:09.389Z,102978.27
2019-02-25T14:35:34.245Z,102964.73
2019-02-25T14:40:58.773Z,102964.42
2019-02-25T14:46:24.960Z,102943.70
2019-02-25T14:51:49.196Z,102943.70
2019-02-25T14:57:13.789Z,102936.14
2019-02-25T15:02:39.014Z,102939.80
2019-02-25T15:08:04.379Z,102942.03
2019-02-25T15:13:30.022Z,102953.12
2019-02-25T15:18:53.575Z,102953.08
2019-02-25T15:24:19.057Z,102940.31
2019-02-25T15:29:44.714Z,102946.45
2019-02-25T15:35:09.543Z,102937.05
2019-02-25T15:40:35.529Z,102929.21
2019-02-25T15:46:00.177Z,102937.42
2019-02-25T15:51:23.805Z,102943.44
2019-02-25T15:56:48.339Z,102949.06
2019-02-25T16:02:14.214Z,102952.93
2019-02-25T16:07:40.105Z,102958.60
2019-02-25T16:13:09.147Z,102952.69
2019-02-25T16:18:30.448Z,102949.55
2019-02-25T16:23:54.756Z,102952.98
2019-02-25T16:29:19.388Z,102957.48
2019-02-25T16:34:44.298Z,102948.97
2019-02-25T16:40:10.620Z,102946.54
2019-02-25T16:45:36.796Z,102953.32
2019-02-25T16:51:00.595Z,102959.66
2019-02-25T16:56:25.482Z,102960.42
2019-02-25T17:01:50.039Z,102968.00
2019-02-25T17:07:16.099Z,102957.57
2019-02-25T17:12:40.867Z,102960.83
2019-02-25T17:18:05.657Z,102956.89
2019-02-25T17:23:30.661Z,102972.58
2019-02-25T17:28:55.612Z,102972.64
2019-02-25T17:34:20.991Z,102971.80
2019-02-25T17:39:45.248Z,102963.47
2019-02-25T17:45:11.909Z,102968.52
2019-02-25T17:50:37.159Z,102968.53
2019-02-25T17:56:02.201Z,102971.50
2019-02-25T18:01:27.986Z,102966.36
2019-02-25T18:06:52.988Z,102971.44
2019-02-25T18:12:18.897Z,102967.87
2019-02-25T18:17:44.568Z,102947.91
2019-02-25T18:23:09.487Z,102950.58
2019-02-25T18:28:34.924Z,102950.14
2019-02-25T18:33:59.458Z,102954.33
2019-02-25T18:39:25.105Z,102960.38
2019-02-25T18:44:49.602Z,102963.33
2019-02-25T18:50:19.452Z,102954.70
2019-02-25T18:55:43.229Z,102944.53
2019-02-25T19:01:08.976Z,102940.59
2019-02-25T19:06:32.484Z,102941.55
2019-02-25T19:11:57.974Z,102954.48
2019-02-25T19:17:23.153Z,102965.52
2019-02-25T19:22:47.569Z,102958.05
2019-02-25T19:28:16.500Z,102955.37
2019-02-25T19:33:37.787Z,102953.16
2019-02-25T19:39:04.947Z,102948.09
2019-02-25T19:44:29.801Z,102940.41
2019-02-25T19:49:53.759Z,102944.78
2019-02-25T19:55:23.267Z,102937.80
2019-02-25T20:00:50.612Z,102943.27
2019-02-25T20:06:15.942Z,102947.02
2019-02-25T20:11:38.934Z,102948.71
2019-02-25T20:17:03.399Z,102946.17
2019-02-25T20:22:29.730Z,102946.95
2019-02-25T20:27:55.203Z,102943.25
2019-02-25T20:33:19.346Z,102946.50
2019-02-25T20:38:43.198Z,102939.84
2019-02-25T20:44:07.864Z,102945.89
2019-02-25T20:49:32.426Z,102930.70
2019-02-25T20:54:58.268Z,102927.73
2019-02-25T21:00:22.457Z,102921.58
2019-02-25T21:05:47.257Z,102913.07
2019-02-25T21:11:13.508Z,102918.30
2019-02-25T21:16:37.906Z,102915.78
2019-02-25T21:22:04.298Z,102905.44
2019-02-25T21:27:30.109Z,102900.86
2019-02-25T21:32:54.388Z,102892.72
2019-02-25T21:38:19.542Z,102885.09
2019-02-25T21:43:47.312Z,102879.89
2019-02-25T21:49:11.251Z,102868.81
2019-02-25T21:54:34.970Z,102879.92
2019-02-25T22:00:01.019Z,102869.97
2019-02-25T22:05:25.031Z,102891.52
2019-02-25T22:10:49.593Z,102880.02
2019-02-25T22:16:13.583Z,102886.28
2019-02-25T22:21:37.344Z,102888.48
2019-02-25T22:27:01.710Z,102896.44
2019-02-25T22:32:25.854Z,102889.08
2019-02-25T22:37:52.671Z,102898.23
2019-02-25T22:43:16.411Z,102898.73
2019-02-25T22:48:43.319Z,102905.74
2019-02-25T22:54:10.126Z,102901.97
2019-02-25T22:59:35.515Z,102897.13
2019-02-25T23:04:59.277Z,102884.70
2019-02-25T23:10:24.297Z,102891.67
2019-02-25T23:15:50.821Z,102882.16
2019-02-25T23:21:23.469Z,102870.64
2019-02-25T23:26:41.107Z,102865.84
2019-02-25T23:32:05.877Z,102848.09
2019-02-25T23:37:29.943Z,102834.82
2019-02-25T23:42:53.810Z,102828.32
2019-02-25T23:48:18.735Z,102834.38
2019-02-25T23:53:43.242Z,102838.86
2019-02-25T23:59:10.735Z,102840.56
